createdAt,value
2023-05-08T00:04:39.736Z,7.67
2023-05-08T00:09:39.613Z,7.63
2023-05-08T00:14:39.541Z,7.27
2023-05-08T00:19:39.468Z,7.02
2023-05-08T00:24:39.418Z,6.84
2023-05-08T00:29:39.344Z,6.79
2023-05-08T00:34:39.286Z,6.89
2023-05-08T00:39:39.246Z,6.80
2023-05-08T00:44:39.152Z,6.76
2023-05-08T00:49:39.080Z,6.76
2023-05-08T00:54:39.040Z,6.69
2023-05-08T00:59:38.943Z,6.68
2023-05-08T01:04:38.880Z,6.65
2023-05-08T01:09:38.815Z,6.61
2023-05-08T01:14:38.751Z,6.50
2023-05-08T01:19:38.680Z,6.48
2023-05-08T01:24:38.618Z,6.41
2023-05-08T01:29:38.580Z,6.58
2023-05-08T01:34:38.483Z,6.51
2023-05-08T01:39:38.404Z,6.44
2023-05-08T01:44:38.327Z,6.56
2023-05-08T01:49:38.267Z,6.65
2023-05-08T01:54:38.220Z,6.83
2023-05-08T01:59:38.127Z,7.04
2023-05-08T02:04:38.075Z,7.02
2023-05-08T02:09:38.009Z,6.97
2023-05-08T02:14:37.935Z,7.08
2023-05-08T02:19:37.858Z,7.17
2023-05-08T02:24:37.796Z,7.08
2023-05-08T02:29:37.722Z,6.95
2023-05-08T02:34:40.953Z,6.84
2023-05-08T02:39:38.590Z,6.62
2023-05-08T02:44:37.528Z,6.56
2023-05-08T02:49:37.451Z,6.53
2023-05-08T02:54:37.403Z,6.30
2023-05-08T02:59:37.316Z,6.21
2023-05-08T03:04:37.266Z,6.10
2023-05-08T03:09:37.184Z,5.95
2023-05-08T03:14:37.129Z,5.95
2023-05-08T03:19:37.055Z,5.98
2023-05-08T03:24:37.003Z,5.95
2023-05-08T03:29:36.929Z,6.09
2023-05-08T03:34:36.863Z,6.09
2023-05-08T03:39:36.801Z,6.25
2023-05-08T03:44:36.736Z,6.19
2023-05-08T03:49:36.665Z,6.19
2023-05-08T03:54:36.600Z,6.35
2023-05-08T03:59:36.543Z,6.38
2023-05-08T04:04:36.478Z,6.32
2023-05-08T04:09:36.407Z,6.59
2023-05-08T04:14:36.355Z,6.83
2023-05-08T04:19:36.294Z,7.02
2023-05-08T04:24:36.211Z,7.16
2023-05-08T04:29:36.154Z,7.53
2023-05-08T04:34:36.083Z,9.66
2023-05-08T04:39:36.024Z,12.44
2023-05-08T04:44:35.951Z,14.44
2023-05-08T04:49:35.886Z,16.03
2023-05-08T04:54:35.832Z,16.68
2023-05-08T04:59:35.749Z,16.62
2023-05-08T05:04:35.684Z,16.68
2023-05-08T05:09:35.616Z,16.71
2023-05-08T05:14:35.547Z,17.70
2023-05-08T05:19:35.480Z,17.41
2023-05-08T05:24:35.417Z,18.58
2023-05-08T05:29:35.340Z,19.06
2023-05-08T05:34:35.310Z,19.32
2023-05-08T05:39:35.230Z,19.14
2023-05-08T05:44:35.153Z,19.50
2023-05-08T05:49:35.094Z,20.03
2023-05-08T05:54:35.035Z,19.63
2023-05-08T05:59:34.986Z,19.69
2023-05-08T06:04:35.036Z,19.29
2023-05-08T06:09:34.903Z,19.43
2023-05-08T06:14:34.864Z,20.56
2023-05-08T06:19:34.760Z,21.29
2023-05-08T06:24:34.711Z,20.54
2023-05-08T06:29:34.666Z,20.66
2023-05-08T06:34:34.623Z,21.05
2023-05-08T06:39:34.507Z,22.06
2023-05-08T06:44:34.466Z,21.88
2023-05-08T06:49:34.391Z,21.59
2023-05-08T06:54:34.335Z,21.83
2023-05-08T06:59:34.267Z,21.38
2023-05-08T07:04:34.298Z,20.20
2023-05-08T07:09:34.137Z,20.50
2023-05-08T07:14:34.078Z,20.69
2023-05-08T07:19:34.019Z,20.42
2023-05-08T07:24:33.965Z,19.05
2023-05-08T07:29:33.892Z,19.31
2023-05-08T07:34:33.827Z,18.68
2023-05-08T07:39:33.760Z,18.10
2023-05-08T07:44:40.614Z,18.29
2023-05-08T07:49:34.604Z,18.18
2023-05-08T07:54:33.562Z,17.36
2023-05-08T07:59:33.491Z,18.92
2023-05-08T08:04:33.496Z,18.03
2023-05-08T08:09:33.350Z,18.12
2023-05-08T08:14:33.304Z,17.59
2023-05-08T08:19:33.225Z,17.55
2023-05-08T08:24:33.231Z,17.53
2023-05-08T08:29:33.064Z,17.69
2023-05-08T08:34:33.026Z,17.94
2023-05-08T08:39:32.955Z,18.31
2023-05-08T08:44:32.893Z,18.58
2023-05-08T08:49:32.820Z,18.49
2023-05-08T08:54:32.735Z,17.84
2023-05-08T08:59:32.692Z,17.73
2023-05-08T09:04:32.646Z,17.54
2023-05-08T09:09:32.558Z,17.10
2023-05-08T09:14:32.556Z,17.29
2023-05-08T09:19:32.370Z,16.86
2023-05-08T09:24:32.344Z,17.18
2023-05-08T09:29:32.505Z,17.15
2023-05-08T09:34:32.630Z,17.08
2023-05-08T09:39:32.108Z,17.47
2023-05-08T09:44:32.531Z,17.64
2023-05-08T09:49:31.977Z,17.47
2023-05-08T09:54:31.942Z,18.03
2023-05-08T09:59:34.101Z,17.89
2023-05-08T10:04:31.781Z,18.00
2023-05-08T10:09:42.572Z,18.15
2023-05-08T10:14:32.661Z,17.99
2023-05-08T10:19:31.572Z,17.66
2023-05-08T10:24:31.537Z,17.94
2023-05-08T10:29:31.451Z,18.09
2023-05-08T10:34:31.384Z,18.25
2023-05-08T10:39:31.323Z,18.67
2023-05-08T10:44:31.253Z,18.74
2023-05-08T10:49:31.889Z,18.43
2023-05-08T10:54:31.196Z,18.67
2023-05-08T10:59:31.025Z,18.82
2023-05-08T11:04:31.114Z,19.15
2023-05-08T11:09:30.883Z,19.39
2023-05-08T11:14:30.826Z,19.50
2023-05-08T11:19:30.772Z,19.23
2023-05-08T11:24:30.685Z,18.87
2023-05-08T11:29:30.625Z,18.77
2023-05-08T11:34:30.546Z,18.97
2023-05-08T11:39:30.475Z,19.32
2023-05-08T11:44:30.414Z,19.46
2023-05-08T11:49:30.364Z,19.93
2023-05-08T11:54:30.287Z,19.42
2023-05-08T11:59:30.214Z,19.14
2023-05-08T12:04:30.246Z,19.08
2023-05-08T12:09:30.106Z,18.95
2023-05-08T12:14:30.068Z,19.14
2023-05-08T12:19:30.015Z,19.24
2023-05-08T12:24:29.888Z,19.58
2023-05-08T12:29:29.813Z,19.60
2023-05-08T12:34:29.775Z,19.51
2023-05-08T12:39:29.673Z,19.69
2023-05-08T12:44:29.610Z,19.87
2023-05-08T12:49:29.536Z,19.93
2023-05-08T12:54:29.475Z,20.12
2023-05-08T12:59:29.414Z,20.39
2023-05-08T13:04:29.455Z,20.56
2023-05-08T13:09:29.278Z,20.46
2023-05-08T13:14:29.215Z,20.27
2023-05-08T13:19:29.145Z,20.00
2023-05-08T13:24:29.071Z,19.76
2023-05-08T13:29:29.025Z,19.95
2023-05-08T13:34:28.954Z,19.47
2023-05-08T13:39:28.882Z,19.57
2023-05-08T13:44:28.845Z,19.61
2023-05-08T13:49:28.741Z,19.73
2023-05-08T13:54:28.676Z,19.63
2023-05-08T13:59:28.622Z,19.60
2023-05-08T14:04:28.543Z,19.47
2023-05-08T14:09:28.464Z,19.38
2023-05-08T14:14:28.388Z,19.29
2023-05-08T14:19:28.330Z,19.24
2023-05-08T14:24:28.268Z,19.40
2023-05-08T14:29:28.200Z,19.50
2023-05-08T14:34:28.159Z,19.43
2023-05-08T14:39:28.068Z,19.20
2023-05-08T14:44:28.041Z,19.06
2023-05-08T14:54:27.975Z,19.01
2023-05-08T14:59:27.826Z,19.02
2023-05-08T15:04:27.727Z,19.31
2023-05-08T15:09:27.770Z,19.70
2023-05-08T15:14:27.615Z,19.84
2023-05-08T15:19:27.537Z,19.87
2023-05-08T15:24:27.462Z,20.08
2023-05-08T15:29:27.404Z,20.05
2023-05-08T15:34:29.494Z,19.84
2023-05-08T15:39:28.267Z,19.93
2023-05-08T15:44:37.704Z,19.94
2023-05-08T15:49:28.117Z,20.02
2023-05-08T15:54:27.056Z,19.83
2023-05-08T15:59:27.009Z,19.38
2023-05-08T16:04:26.919Z,19.60
2023-05-08T16:09:26.861Z,19.80
2023-05-08T16:14:26.793Z,19.63
2023-05-08T16:19:26.730Z,19.10
2023-05-08T16:24:26.670Z,19.06
2023-05-08T16:29:26.604Z,18.98
2023-05-08T16:34:26.525Z,19.05
2023-05-08T16:39:26.528Z,18.86
2023-05-08T16:44:26.392Z,18.86
2023-05-08T16:49:26.329Z,18.65
2023-05-08T16:54:26.265Z,18.42
2023-05-08T16:59:26.198Z,18.42
2023-05-08T17:04:26.131Z,18.54
2023-05-08T17:09:26.051Z,18.17
2023-05-08T17:14:25.993Z,18.13
2023-05-08T17:19:25.940Z,18.43
2023-05-08T17:24:25.848Z,18.29
2023-05-08T17:29:25.834Z,18.27
2023-05-08T17:34:25.784Z,18.31
2023-05-08T17:39:25.694Z,17.92
2023-05-08T17:44:25.593Z,17.85
2023-05-08T17:49:25.534Z,17.79
2023-05-08T17:54:25.486Z,17.50
2023-05-08T17:59:25.391Z,17.13
2023-05-08T18:04:25.328Z,17.30
2023-05-08T18:09:25.262Z,17.76
2023-05-08T18:14:25.188Z,17.46
2023-05-08T18:19:25.139Z,17.36
2023-05-08T18:24:25.048Z,16.53
2023-05-08T18:29:24.974Z,17.10
2023-05-08T18:34:24.915Z,17.57
2023-05-08T18:39:24.877Z,17.44
2023-05-08T18:44:24.816Z,16.83
2023-05-08T18:49:24.730Z,17.28
2023-05-08T18:54:24.647Z,16.99
2023-05-08T18:59:24.576Z,16.23
2023-05-08T19:04:24.531Z,15.43
2023-05-08T19:09:24.446Z,14.98
2023-05-08T19:14:24.371Z,14.49
2023-05-08T19:19:24.321Z,14.10
2023-05-08T19:24:24.249Z,13.73
2023-05-08T19:29:24.179Z,13.41
2023-05-08T19:34:24.194Z,13.14
2023-05-08T19:39:24.054Z,13.09
2023-05-08T19:44:23.994Z,13.02
2023-05-08T19:49:23.959Z,13.03
2023-05-08T19:54:23.890Z,13.02
2023-05-08T19:59:23.855Z,12.84
2023-05-08T20:04:23.773Z,12.75
2023-05-08T20:09:23.720Z,12.70
2023-05-08T20:14:23.620Z,12.48
2023-05-08T20:19:24.716Z,12.39
2023-05-08T20:24:23.464Z,12.52
2023-05-08T20:29:23.440Z,12.54
2023-05-08T20:34:23.366Z,12.24
2023-05-08T20:39:23.301Z,12.04
2023-05-08T20:44:23.230Z,11.75
2023-05-08T20:49:23.157Z,11.59
2023-05-08T20:54:23.069Z,11.44
2023-05-08T20:59:23.012Z,11.24
2023-05-08T21:04:23.045Z,11.03
2023-05-08T21:09:22.848Z,10.74
2023-05-08T21:14:22.771Z,10.63
2023-05-08T21:19:22.708Z,10.56
2023-05-08T21:24:22.629Z,10.56
2023-05-08T21:29:22.585Z,10.65
2023-05-08T21:34:22.508Z,10.86
2023-05-08T21:39:22.458Z,10.84
2023-05-08T21:44:22.371Z,10.89
2023-05-08T21:49:22.307Z,10.78
2023-05-08T21:54:22.240Z,10.77
2023-05-08T21:59:22.167Z,10.58
2023-05-08T22:04:22.096Z,10.34
2023-05-08T22:09:22.038Z,10.07
2023-05-08T22:14:21.961Z,10.01
2023-05-08T22:19:21.901Z,10.01
2023-05-08T22:24:21.841Z,9.91
2023-05-08T22:29:21.764Z,9.81
2023-05-08T22:34:21.710Z,9.83
2023-05-08T22:39:21.623Z,9.85
2023-05-08T22:44:21.558Z,9.75
2023-05-08T22:49:21.493Z,9.85
2023-05-08T22:54:21.433Z,9.71
2023-05-08T22:59:21.356Z,9.83
2023-05-08T23:04:21.347Z,10.00
2023-05-08T23:09:21.229Z,9.99
2023-05-08T23:14:21.164Z,10.12
2023-05-08T23:19:21.094Z,10.25
2023-05-08T23:24:21.019Z,10.25
2023-05-08T23:29:20.959Z,10.32
2023-05-08T23:34:20.877Z,10.30
2023-05-08T23:39:20.818Z,10.22
2023-05-08T23:44:20.765Z,10.24
2023-05-08T23:49:20.683Z,10.15
2023-05-08T23:54:20.616Z,10.17
2023-05-08T23:59:20.581Z,10.32
